createdAt,value
2023-01-29T00:02:11.225Z,8.57
2023-01-29T00:05:10.024Z,9.20
2023-01-29T00:08:05.594Z,9.67
2023-01-29T00:10:54.093Z,8.90
2023-01-29T00:13:42.627Z,8.50
2023-01-29T00:16:32.574Z,8.50
2023-01-29T00:19:21.092Z,8.47
2023-01-29T00:22:10.419Z,8.23
2023-01-29T00:24:59.187Z,8.93
2023-01-29T00:27:47.624Z,7.90
2023-01-29T00:30:36.986Z,8.70
2023-01-29T00:33:26.791Z,8.80
2023-01-29T00:36:17.063Z,9.07
2023-01-29T00:39:10.611Z,8.03
2023-01-29T00:42:16.816Z,10.30
2023-01-29T00:45:06.166Z,9.00
2023-01-29T00:47:54.606Z,9.10
2023-01-29T00:50:44.544Z,7.57
2023-01-29T00:53:32.960Z,8.30
2023-01-29T00:56:21.390Z,8.73
2023-01-29T00:59:09.910Z,7.90
2023-01-29T01:02:15.787Z,9.43
2023-01-29T01:05:06.051Z,8.00
2023-01-29T01:07:57.593Z,8.00
2023-01-29T01:10:45.082Z,8.63
2023-01-29T01:13:34.340Z,10.03
2023-01-29T01:16:22.981Z,8.53
2023-01-29T01:19:11.649Z,8.33
2023-01-29T01:22:00.164Z,7.70
2023-01-29T01:24:50.400Z,8.40
2023-01-29T01:27:41.106Z,7.83
2023-01-29T01:30:29.724Z,8.73
2023-01-29T01:33:18.425Z,8.20
2023-01-29T01:36:09.804Z,8.43
2023-01-29T01:38:58.302Z,8.27
2023-01-29T01:41:48.135Z,8.50
2023-01-29T01:44:56.524Z,7.93
2023-01-29T01:47:48.432Z,8.67
2023-01-29T01:50:40.693Z,8.73
2023-01-29T01:53:32.224Z,8.00
2023-01-29T01:56:24.643Z,7.67
2023-01-29T01:59:15.943Z,8.47
2023-01-29T02:02:21.815Z,8.70
2023-01-29T02:05:29.028Z,8.57
2023-01-29T02:08:37.404Z,8.50
2023-01-29T02:11:25.858Z,8.70
2023-01-29T02:14:15.670Z,8.23
2023-01-29T02:17:04.312Z,8.53
2023-01-29T02:20:03.093Z,8.30
2023-01-29T02:23:13.810Z,8.57
2023-01-29T02:26:11.518Z,7.73
2023-01-29T02:29:22.412Z,9.70
2023-01-29T02:32:18.068Z,9.03
2023-01-29T02:35:28.526Z,9.87
2023-01-29T02:38:22.378Z,8.30
2023-01-29T02:41:14.963Z,8.97
2023-01-29T02:44:09.800Z,9.03
2023-01-29T02:47:02.107Z,9.07
2023-01-29T02:49:53.822Z,8.40
2023-01-29T02:52:49.717Z,8.03
2023-01-29T02:55:41.424Z,8.43
2023-01-29T02:58:32.382Z,8.83
2023-01-29T03:01:26.001Z,8.10
2023-01-29T03:04:19.675Z,8.57
2023-01-29T03:07:22.456Z,9.13
2023-01-29T03:10:16.914Z,8.83
2023-01-29T03:13:11.737Z,8.57
2023-01-29T03:16:03.029Z,8.57
2023-01-29T03:18:57.119Z,9.10
2023-01-29T03:21:55.348Z,8.20
2023-01-29T03:25:05.289Z,9.23
2023-01-29T03:28:14.928Z,8.57
2023-01-29T03:31:23.616Z,8.67
2023-01-29T03:34:18.131Z,8.60
2023-01-29T03:37:09.851Z,9.30
2023-01-29T03:39:58.460Z,9.77
2023-01-29T03:42:56.849Z,8.60
2023-01-29T03:45:53.649Z,8.40
2023-01-29T03:48:48.099Z,8.70
2023-01-29T03:51:39.447Z,9.40
2023-01-29T03:54:33.375Z,9.40
2023-01-29T03:57:29.853Z,8.90
2023-01-29T04:00:21.197Z,9.30
2023-01-29T04:03:15.597Z,8.80
2023-01-29T04:06:10.680Z,8.93
2023-01-29T04:09:05.032Z,8.73
2023-01-29T04:11:58.667Z,8.40
2023-01-29T04:14:48.124Z,10.30
2023-01-29T04:17:40.424Z,8.77
2023-01-29T04:20:29.194Z,8.90
2023-01-29T04:23:22.521Z,10.20
2023-01-29T04:26:24.749Z,9.10
2023-01-29T04:29:23.075Z,9.80
2023-01-29T04:32:16.415Z,9.20
2023-01-29T04:35:11.218Z,8.70
2023-01-29T04:38:08.100Z,8.77
2023-01-29T04:41:04.241Z,9.10
2023-01-29T04:44:00.801Z,10.20
2023-01-29T04:46:53.551Z,8.40
2023-01-29T04:49:46.434Z,9.03
2023-01-29T04:52:43.256Z,9.30
2023-01-29T04:55:37.514Z,9.53
2023-01-29T04:58:29.446Z,8.60
2023-01-29T05:01:20.489Z,9.13
2023-01-29T05:04:12.152Z,9.40
2023-01-29T05:07:03.326Z,9.57
2023-01-29T05:09:52.356Z,8.83
2023-01-29T05:12:41.667Z,8.53
2023-01-29T05:15:34.860Z,9.90
2023-01-29T05:18:25.039Z,9.00
2023-01-29T05:21:13.869Z,9.43
2023-01-29T05:24:10.755Z,9.17
2023-01-29T05:27:16.660Z,8.80
2023-01-29T05:30:06.074Z,9.40
2023-01-29T05:32:54.563Z,10.30
2023-01-29T05:35:44.546Z,9.90
2023-01-29T05:38:33.046Z,10.00
2023-01-29T05:41:22.101Z,9.67
2023-01-29T05:44:10.871Z,8.57
2023-01-29T05:46:59.422Z,8.37
2023-01-29T05:49:47.902Z,8.47
2023-01-29T05:52:37.739Z,9.47
2023-01-29T05:55:26.318Z,9.00
2023-01-29T05:58:15.192Z,7.77
2023-01-29T06:01:11.199Z,9.00
2023-01-29T06:03:59.703Z,9.17
2023-01-29T06:06:48.186Z,7.90
2023-01-29T06:09:38.030Z,9.40
2023-01-29T06:12:27.829Z,7.90
2023-01-29T06:15:16.589Z,7.90
2023-01-29T06:18:05.271Z,8.63
2023-01-29T06:20:53.739Z,9.57
2023-01-29T06:23:42.576Z,8.60
2023-01-29T06:26:32.449Z,9.17
2023-01-29T06:29:20.920Z,8.10
2023-01-29T06:32:09.452Z,8.23
2023-01-29T06:34:57.961Z,7.53
2023-01-29T06:37:46.482Z,9.23
2023-01-29T06:40:35.000Z,7.00
2023-01-29T06:43:25.276Z,7.73
2023-01-29T06:46:13.896Z,8.30
2023-01-29T06:49:02.399Z,7.77
2023-01-29T06:51:50.891Z,8.70
2023-01-29T06:54:39.328Z,7.77
2023-01-29T06:57:29.850Z,9.73
2023-01-29T07:00:20.468Z,8.67
2023-01-29T07:03:11.624Z,8.47
2023-01-29T07:06:00.136Z,7.23
2023-01-29T07:08:48.665Z,8.50
2023-01-29T07:11:38.023Z,8.50
2023-01-29T07:14:26.464Z,7.83
2023-01-29T07:17:16.262Z,8.50
2023-01-29T07:20:05.887Z,8.60
2023-01-29T07:22:54.374Z,8.70
2023-01-29T07:25:42.954Z,8.63
2023-01-29T07:28:31.446Z,9.77
2023-01-29T07:31:20.214Z,10.10
2023-01-29T07:34:10.165Z,8.00
2023-01-29T07:36:58.620Z,9.53
2023-01-29T07:39:47.661Z,10.30
2023-01-29T07:42:36.094Z,9.40
2023-01-29T07:45:24.596Z,8.60
2023-01-29T07:48:14.089Z,8.80
2023-01-29T07:51:03.981Z,8.23
2023-01-29T07:53:53.358Z,10.27
2023-01-29T07:56:41.826Z,9.70
2023-01-29T07:59:30.326Z,8.80
2023-01-29T08:02:19.004Z,8.40
2023-01-29T08:05:08.596Z,9.57
2023-01-29T08:08:06.530Z,8.47
2023-01-29T08:10:56.161Z,8.57
2023-01-29T08:13:45.661Z,8.03
2023-01-29T08:16:34.237Z,8.67
2023-01-29T08:19:23.430Z,9.37
2023-01-29T08:22:11.879Z,9.50
2023-01-29T08:25:08.174Z,8.40
2023-01-29T08:27:57.749Z,9.07
2023-01-29T08:30:46.255Z,7.43
2023-01-29T08:36:43.202Z,7.70
2023-01-29T08:39:33.094Z,8.03
2023-01-29T08:42:23.544Z,7.60
2023-01-29T08:45:12.833Z,7.87
2023-01-29T08:48:01.307Z,7.87
2023-01-29T08:50:49.806Z,8.23
2023-01-29T08:53:38.230Z,8.50
2023-01-29T08:56:26.816Z,7.20
2023-01-29T08:59:16.897Z,7.43
2023-01-29T09:02:05.391Z,8.00
2023-01-29T09:04:53.957Z,7.23
2023-01-29T09:07:42.693Z,7.83
2023-01-29T09:10:31.329Z,7.83
2023-01-29T09:13:19.963Z,8.40
2023-01-29T09:16:10.523Z,8.00
2023-01-29T09:18:59.029Z,7.50
2023-01-29T09:21:47.548Z,8.70
2023-01-29T09:24:35.998Z,7.30
2023-01-29T09:27:24.865Z,8.27
2023-01-29T09:30:13.973Z,8.97
2023-01-29T09:33:03.976Z,8.40
2023-01-29T09:35:52.445Z,9.10
2023-01-29T09:38:41.067Z,8.17
2023-01-29T09:41:39.823Z,8.63
2023-01-29T09:44:39.663Z,7.70
2023-01-29T09:47:28.813Z,9.10
2023-01-29T09:50:21.304Z,9.00
2023-01-29T09:53:16.949Z,9.80
2023-01-29T09:56:07.202Z,9.83
2023-01-29T09:59:00.468Z,9.90
2023-01-29T10:01:57.011Z,9.50
2023-01-29T10:04:56.985Z,9.17
2023-01-29T10:08:11.142Z,8.83
2023-01-29T10:11:08.173Z,8.60
2023-01-29T10:14:05.247Z,7.03
2023-01-29T10:17:04.196Z,6.90
2023-01-29T10:20:07.927Z,8.43
2023-01-29T10:23:17.059Z,7.73
2023-01-29T10:26:05.689Z,7.40
2023-01-29T10:28:56.591Z,7.67
2023-01-29T10:31:47.748Z,7.80
2023-01-29T10:34:39.619Z,8.13
2023-01-29T10:37:36.153Z,9.90
2023-01-29T10:40:30.285Z,8.30
2023-01-29T10:43:23.453Z,10.73
2023-01-29T10:46:19.172Z,8.63
2023-01-29T10:49:17.702Z,8.97
2023-01-29T10:52:13.016Z,9.03
2023-01-29T10:55:09.618Z,7.50
2023-01-29T10:58:06.802Z,8.20
2023-01-29T11:00:55.384Z,7.30
2023-01-29T11:03:44.091Z,6.80
2023-01-29T11:06:34.064Z,8.90
2023-01-29T11:09:29.360Z,8.13
2023-01-29T11:12:20.949Z,9.50
2023-01-29T11:15:17.928Z,8.97
2023-01-29T11:18:10.599Z,7.93
2023-01-29T11:21:03.610Z,8.70
2023-01-29T11:23:52.617Z,8.67
2023-01-29T11:26:42.505Z,8.10
2023-01-29T11:29:35.382Z,7.30
2023-01-29T11:32:31.569Z,39.93
2023-01-29T11:35:22.605Z,10.27
2023-01-29T11:38:20.817Z,8.60
2023-01-29T11:41:18.103Z,8.03
2023-01-29T11:44:19.126Z,9.20
2023-01-29T11:47:19.412Z,8.50
2023-01-29T11:50:22.051Z,9.07
2023-01-29T11:53:24.530Z,8.20
2023-01-29T11:56:21.352Z,8.30
2023-01-29T11:59:27.253Z,7.40
2023-01-29T12:02:23.778Z,7.80
2023-01-29T12:05:17.799Z,8.10
2023-01-29T12:08:16.700Z,8.40
2023-01-29T12:11:13.891Z,8.50
2023-01-29T12:14:03.632Z,8.97
2023-01-29T12:16:55.448Z,9.33
2023-01-29T12:19:46.379Z,8.30
2023-01-29T12:22:41.868Z,9.30
2023-01-29T12:25:40.355Z,7.20
2023-01-29T12:28:47.938Z,7.63
2023-01-29T12:31:41.810Z,7.20
2023-01-29T12:34:38.273Z,7.27
2023-01-29T12:37:31.820Z,8.33
2023-01-29T12:40:22.945Z,8.53
2023-01-29T12:43:17.107Z,7.50
2023-01-29T12:46:07.917Z,8.50
2023-01-29T12:48:57.736Z,8.00
2023-01-29T12:51:54.332Z,7.63
2023-01-29T12:54:45.882Z,7.63
2023-01-29T12:57:41.251Z,7.67
2023-01-29T13:00:32.906Z,8.20
2023-01-29T13:03:25.443Z,9.30
2023-01-29T13:06:17.166Z,7.97
2023-01-29T13:09:07.867Z,8.93
2023-01-29T13:12:01.547Z,6.90
2023-01-29T13:14:55.305Z,7.10
2023-01-29T13:17:45.896Z,6.90
2023-01-29T13:20:35.338Z,7.40
2023-01-29T13:23:29.679Z,6.70
2023-01-29T13:26:22.562Z,7.30
2023-01-29T13:29:22.198Z,6.90
2023-01-29T13:32:12.073Z,8.27
2023-01-29T13:35:03.923Z,7.20
2023-01-29T13:37:54.649Z,7.20
2023-01-29T13:40:50.033Z,6.60
2023-01-29T13:43:39.930Z,7.07
2023-01-29T13:46:29.846Z,7.50
2023-01-29T13:49:28.948Z,8.00
2023-01-29T13:52:24.508Z,7.03
2023-01-29T13:55:23.913Z,8.10
2023-01-29T13:58:16.957Z,7.80
2023-01-29T14:01:05.791Z,6.77
2023-01-29T14:04:04.801Z,7.40
2023-01-29T14:06:57.347Z,7.13
2023-01-29T14:10:14.362Z,7.00
2023-01-29T14:13:27.408Z,7.30
2023-01-29T14:16:36.142Z,7.30
2023-01-29T14:19:25.637Z,8.50
2023-01-29T14:22:22.728Z,8.40
2023-01-29T14:25:18.495Z,7.97
2023-01-29T14:28:15.905Z,8.90
2023-01-29T14:31:04.972Z,8.37
2023-01-29T14:33:53.880Z,8.10
2023-01-29T14:36:43.491Z,7.63
2023-01-29T14:39:36.655Z,7.77
2023-01-29T14:42:27.336Z,7.97
2023-01-29T14:45:24.676Z,7.90
2023-01-29T14:48:38.496Z,8.17
2023-01-29T14:51:28.174Z,7.10
2023-01-29T14:54:22.304Z,7.93
2023-01-29T14:57:14.440Z,6.67
2023-01-29T15:00:05.380Z,6.60
2023-01-29T15:03:01.639Z,7.20
2023-01-29T15:05:50.931Z,7.33
2023-01-29T15:08:42.786Z,7.63
2023-01-29T15:11:35.490Z,7.70
2023-01-29T15:14:31.140Z,7.90
2023-01-29T15:17:24.319Z,8.10
2023-01-29T15:20:28.145Z,8.43
2023-01-29T15:23:27.556Z,9.43
2023-01-29T15:26:20.197Z,7.73
2023-01-29T15:29:23.373Z,9.00
2023-01-29T15:32:20.122Z,8.30
2023-01-29T15:35:10.717Z,8.20
2023-01-29T15:38:00.173Z,7.07
2023-01-29T15:40:56.513Z,8.33
2023-01-29T15:43:46.732Z,9.10
2023-01-29T15:46:37.061Z,9.00
2023-01-29T15:49:31.900Z,8.27
2023-01-29T15:52:25.346Z,8.73
2023-01-29T15:55:16.106Z,10.00
2023-01-29T15:58:07.543Z,9.13
2023-01-29T16:00:58.016Z,9.47
2023-01-29T16:03:47.718Z,10.13
2023-01-29T16:06:40.288Z,9.60
2023-01-29T16:09:30.020Z,8.87
2023-01-29T16:12:18.671Z,8.77
2023-01-29T16:15:08.670Z,9.97
2023-01-29T16:17:57.440Z,10.07
2023-01-29T16:20:47.323Z,9.03
2023-01-29T16:23:41.960Z,9.23
2023-01-29T16:26:34.231Z,10.30
2023-01-29T16:29:25.037Z,10.33
2023-01-29T16:32:13.971Z,10.03
2023-01-29T16:35:02.672Z,10.03
2023-01-29T16:38:03.195Z,10.37
2023-01-29T16:41:07.657Z,9.90
2023-01-29T16:43:58.251Z,10.47
2023-01-29T16:46:47.994Z,9.70
2023-01-29T16:49:50.816Z,10.47
2023-01-29T16:52:39.369Z,10.23
2023-01-29T16:55:34.179Z,11.10
2023-01-29T16:58:28.191Z,11.00
2023-01-29T17:01:16.740Z,10.37
2023-01-29T17:04:09.910Z,10.33
2023-01-29T17:07:00.952Z,10.33
2023-01-29T17:09:51.707Z,9.33
2023-01-29T17:12:40.285Z,10.87
2023-01-29T17:15:34.516Z,10.80
2023-01-29T17:18:24.810Z,10.67
2023-01-29T17:21:13.384Z,10.90
2023-01-29T17:24:01.855Z,11.00
2023-01-29T17:26:50.454Z,11.03
2023-01-29T17:29:39.978Z,11.37
2023-01-29T17:32:43.911Z,11.03
2023-01-29T17:35:33.748Z,10.53
2023-01-29T17:38:26.243Z,10.97
2023-01-29T17:41:19.366Z,11.47
2023-01-29T17:44:07.819Z,10.83
2023-01-29T17:46:56.316Z,11.37
2023-01-29T17:49:46.351Z,13.43
2023-01-29T17:52:34.817Z,14.23
2023-01-29T17:55:23.441Z,12.70
2023-01-29T17:58:16.183Z,13.67
2023-01-29T18:01:04.885Z,13.27
2023-01-29T18:03:53.543Z,14.73
2023-01-29T18:06:44.915Z,14.90
2023-01-29T18:09:33.448Z,14.73
2023-01-29T18:12:21.900Z,15.50
2023-01-29T18:15:11.601Z,16.43
2023-01-29T18:18:00.456Z,15.60
2023-01-29T18:20:49.111Z,15.20
2023-01-29T18:23:38.944Z,16.50
2023-01-29T18:26:27.629Z,15.97
2023-01-29T18:29:16.443Z,16.40
2023-01-29T18:32:05.552Z,17.23
2023-01-29T18:34:54.639Z,16.00
2023-01-29T18:37:43.192Z,16.77
2023-01-29T18:40:33.510Z,15.87
2023-01-29T18:43:25.457Z,17.20
2023-01-29T18:46:14.903Z,18.37
2023-01-29T18:49:03.563Z,18.50
2023-01-29T18:51:52.075Z,17.40
2023-01-29T18:54:40.555Z,19.13
2023-01-29T18:58:28.591Z,18.80
2023-01-29T19:00:39.383Z,20.53
2023-01-29T19:03:27.968Z,18.03
2023-01-29T19:06:16.530Z,19.63
2023-01-29T19:09:05.301Z,17.50
2023-01-29T19:11:53.813Z,19.77
2023-01-29T19:14:43.785Z,18.20
2023-01-29T19:17:32.727Z,17.93
2023-01-29T19:20:21.388Z,17.53
2023-01-29T19:23:10.083Z,18.47
2023-01-29T19:25:58.784Z,20.50
2023-01-29T19:28:47.384Z,20.47
2023-01-29T19:31:37.348Z,17.87
2023-01-29T19:34:26.756Z,19.60
2023-01-29T19:37:15.398Z,18.87
2023-01-29T19:40:04.149Z,21.40
2023-01-29T19:42:55.013Z,18.60
2023-01-29T19:45:50.281Z,21.40
2023-01-29T19:48:40.571Z,20.33
2023-01-29T19:51:29.351Z,20.00
2023-01-29T19:54:18.272Z,19.13
2023-01-29T19:57:07.583Z,19.67
2023-01-29T19:59:56.135Z,19.27
2023-01-29T20:02:44.719Z,20.87
2023-01-29T20:05:37.427Z,18.80
2023-01-29T20:08:26.267Z,21.07
2023-01-29T20:11:15.261Z,21.33
2023-01-29T20:14:03.938Z,20.00
2023-01-29T20:16:52.448Z,21.03
2023-01-29T20:19:41.026Z,20.13
2023-01-29T20:22:31.145Z,20.90
2023-01-29T20:25:19.683Z,20.83
2023-01-29T20:28:11.591Z,20.37
2023-01-29T20:31:00.509Z,19.73
2023-01-29T20:33:49.096Z,20.87
2023-01-29T20:36:37.621Z,20.83
2023-01-29T20:39:30.779Z,20.37
2023-01-29T20:42:19.418Z,20.23
2023-01-29T20:45:08.545Z,20.03
2023-01-29T20:47:58.487Z,21.10
2023-01-29T20:50:47.088Z,21.00
2023-01-29T20:53:35.622Z,18.37
2023-01-29T20:56:38.169Z,20.37
2023-01-29T20:59:32.860Z,21.17
2023-01-29T21:02:21.385Z,21.80
2023-01-29T21:05:12.474Z,20.10
2023-01-29T21:08:00.958Z,19.67
2023-01-29T21:10:50.479Z,19.93
2023-01-29T21:13:40.498Z,19.53
2023-01-29T21:16:29.364Z,20.37
2023-01-29T21:19:18.069Z,19.80
2023-01-29T21:22:06.716Z,23.10
2023-01-29T21:24:55.202Z,21.07
2023-01-29T21:27:43.731Z,22.73
2023-01-29T21:30:33.886Z,22.73
2023-01-29T21:33:22.409Z,22.90
2023-01-29T21:36:11.288Z,22.43
2023-01-29T21:38:59.871Z,22.73
2023-01-29T21:42:08.438Z,20.33
2023-01-29T21:44:57.008Z,24.67
2023-01-29T21:47:47.027Z,22.90
2023-01-29T21:50:35.653Z,20.90
2023-01-29T21:53:24.140Z,18.30
2023-01-29T21:56:12.644Z,18.97
2023-01-29T21:59:02.339Z,20.13
2023-01-29T22:01:50.940Z,19.13
2023-01-29T22:04:40.911Z,17.13
2023-01-29T22:07:29.948Z,18.17
2023-01-29T22:10:19.925Z,20.00
2023-01-29T22:13:08.949Z,18.90
2023-01-29T22:15:57.433Z,20.47
2023-01-29T22:18:45.936Z,18.00
2023-01-29T22:21:36.065Z,16.83
2023-01-29T22:24:24.666Z,17.93
2023-01-29T22:27:13.501Z,18.50
2023-01-29T22:30:02.130Z,17.90
2023-01-29T22:32:50.755Z,17.10
2023-01-29T22:35:39.371Z,18.53
2023-01-29T22:38:29.258Z,18.60
2023-01-29T22:41:17.723Z,19.13
2023-01-29T22:44:06.370Z,19.37
2023-01-29T22:46:54.918Z,16.90
2023-01-29T22:49:45.464Z,18.10
2023-01-29T22:52:38.535Z,17.50
2023-01-29T22:55:28.464Z,19.10
2023-01-29T22:58:16.929Z,18.23
2023-01-29T23:01:05.861Z,17.90
2023-01-29T23:03:54.547Z,18.73
2023-01-29T23:06:44.123Z,20.30
2023-01-29T23:09:32.629Z,19.50
2023-01-29T23:12:22.439Z,17.57
2023-01-29T23:15:11.154Z,17.07
2023-01-29T23:17:59.606Z,19.37
2023-01-29T23:20:48.159Z,19.00
2023-01-29T23:23:37.757Z,19.00
2023-01-29T23:26:43.900Z,20.20
2023-01-29T23:29:33.742Z,17.80
2023-01-29T23:32:22.542Z,18.40
2023-01-29T23:35:11.283Z,20.03
2023-01-29T23:37:59.788Z,18.07
2023-01-29T23:40:48.673Z,18.47
2023-01-29T23:43:37.167Z,17.50
2023-01-29T23:46:27.085Z,18.30
2023-01-29T23:49:15.576Z,18.47
2023-01-29T23:52:04.252Z,19.40
2023-01-29T23:54:52.785Z,18.03
2023-01-29T23:57:41.298Z,18.33
